createdAt,value
2022-11-03T00:00:19.716Z,6.39
2022-11-03T00:03:41.917Z,6.45
2022-11-03T00:07:04.672Z,6.48
2022-11-03T00:10:26.520Z,6.48
2022-11-03T00:13:48.675Z,6.47
2022-11-03T00:17:10.094Z,6.47
2022-11-03T00:20:32.107Z,6.31
2022-11-03T00:23:55.581Z,6.48
2022-11-03T00:27:17.389Z,6.50
2022-11-03T00:30:40.859Z,6.50
2022-11-03T00:34:03.891Z,6.51
2022-11-03T00:37:25.577Z,6.52
2022-11-03T00:40:54.552Z,6.52
2022-11-03T00:44:16.348Z,6.50
2022-11-03T00:47:58.440Z,6.49
2022-11-03T00:51:21.569Z,6.48
2022-11-03T00:54:45.490Z,6.52
2022-11-03T00:58:08.704Z,6.52
2022-11-03T01:01:32.533Z,6.49
2022-11-03T01:05:12.187Z,6.52
2022-11-03T01:08:35.136Z,6.52
2022-11-03T01:12:01.675Z,6.47
2022-11-03T01:15:24.997Z,6.51
2022-11-03T01:18:46.562Z,6.52
2022-11-03T01:22:10.830Z,6.52
2022-11-03T01:25:32.821Z,6.53
2022-11-03T01:28:55.266Z,6.51
2022-11-03T01:32:19.002Z,6.47
2022-11-03T01:35:40.874Z,6.48
2022-11-03T01:39:02.414Z,6.47
2022-11-03T01:42:23.903Z,6.46
2022-11-03T01:45:46.503Z,6.46
2022-11-03T01:49:16.397Z,6.45
2022-11-03T01:52:43.672Z,6.45
2022-11-03T01:56:06.396Z,6.44
2022-11-03T01:59:29.213Z,6.44
2022-11-03T02:02:52.591Z,6.41
2022-11-03T02:06:17.033Z,6.48
2022-11-03T02:09:38.503Z,6.48
2022-11-03T02:13:00.653Z,6.51
2022-11-03T02:16:24.743Z,6.46
2022-11-03T02:19:51.475Z,6.52
2022-11-03T02:23:28.316Z,6.50
2022-11-03T02:26:55.335Z,6.49
2022-11-03T02:30:17.453Z,6.48
2022-11-03T02:33:47.339Z,6.48
2022-11-03T02:37:16.763Z,6.45
2022-11-03T02:40:43.101Z,6.42
2022-11-03T02:44:09.162Z,6.42
2022-11-03T02:47:32.720Z,6.40
2022-11-03T02:50:56.185Z,6.40
2022-11-03T02:54:24.279Z,6.40
2022-11-03T02:57:51.243Z,6.42
2022-11-03T03:01:20.637Z,6.43
2022-11-03T03:04:43.600Z,6.46
2022-11-03T03:08:09.101Z,6.42
2022-11-03T03:11:40.505Z,6.42
2022-11-03T03:15:05.510Z,6.42
2022-11-03T03:18:34.345Z,6.42
2022-11-03T03:21:59.456Z,6.34
2022-11-03T03:25:26.282Z,6.39
2022-11-03T03:28:53.477Z,6.39
2022-11-03T03:32:19.863Z,6.39
2022-11-03T03:35:46.711Z,6.40
2022-11-03T03:39:11.829Z,6.41
2022-11-03T03:42:36.244Z,6.41
2022-11-03T03:46:02.457Z,6.34
2022-11-03T03:49:24.358Z,6.38
2022-11-03T03:52:47.203Z,6.39
2022-11-03T03:56:09.179Z,6.38
2022-11-03T03:59:31.293Z,6.36
2022-11-03T04:02:52.871Z,6.32
2022-11-03T04:06:15.029Z,6.32
2022-11-03T04:09:38.580Z,6.28
2022-11-03T04:13:18.370Z,6.27
2022-11-03T04:16:58.261Z,6.26
2022-11-03T04:20:38.094Z,6.24
2022-11-03T04:24:00.978Z,6.26
2022-11-03T04:27:42.686Z,6.17
2022-11-03T04:31:04.599Z,6.26
2022-11-03T04:34:26.682Z,6.26
2022-11-03T04:37:53.055Z,6.26
2022-11-03T04:41:17.913Z,6.24
2022-11-03T04:44:41.412Z,6.28
2022-11-03T04:48:10.895Z,6.18
2022-11-03T04:51:36.138Z,6.23
2022-11-03T04:54:58.103Z,6.26
2022-11-03T04:58:22.260Z,6.26
2022-11-03T05:01:47.297Z,6.08
2022-11-03T05:05:18.301Z,6.28
2022-11-03T05:08:40.503Z,6.22
2022-11-03T05:12:02.524Z,6.18
2022-11-03T05:15:33.353Z,6.31
2022-11-03T05:18:57.695Z,6.31
2022-11-03T05:22:23.652Z,6.31
2022-11-03T05:25:49.276Z,6.31
2022-11-03T05:29:17.564Z,6.30
2022-11-03T05:32:40.525Z,6.30
2022-11-03T05:36:15.369Z,6.30
2022-11-03T05:39:42.214Z,6.17
2022-11-03T05:43:09.745Z,6.30
2022-11-03T05:46:37.870Z,6.27
2022-11-03T05:50:13.105Z,6.32
2022-11-03T05:53:39.858Z,6.31
2022-11-03T05:57:03.644Z,6.31
2022-11-03T06:00:35.410Z,6.32
2022-11-03T06:03:59.417Z,6.24
2022-11-03T06:07:26.754Z,6.25
2022-11-03T06:10:52.374Z,6.34
2022-11-03T06:14:24.386Z,6.24
2022-11-03T06:17:47.420Z,6.31
2022-11-03T06:21:14.377Z,6.27
2022-11-03T06:24:37.624Z,6.32
2022-11-03T06:28:06.730Z,6.32
2022-11-03T06:31:30.916Z,6.33
2022-11-03T06:34:57.669Z,6.32
2022-11-03T06:38:23.436Z,6.35
2022-11-03T06:41:45.953Z,6.35
2022-11-03T06:45:20.777Z,6.35
2022-11-03T06:48:43.698Z,6.39
2022-11-03T06:52:22.704Z,6.40
2022-11-03T06:55:45.634Z,6.30
2022-11-03T06:59:14.803Z,6.40
2022-11-03T07:02:57.772Z,6.40
2022-11-03T07:06:24.895Z,6.41
2022-11-03T07:09:47.898Z,6.42
2022-11-03T07:13:16.386Z,6.43
2022-11-03T07:16:43.338Z,6.42
2022-11-03T07:20:16.429Z,6.46
2022-11-03T07:23:42.134Z,6.42
2022-11-03T07:27:18.118Z,6.47
2022-11-03T07:30:40.876Z,6.47
2022-11-03T07:34:03.627Z,6.47
2022-11-03T07:37:28.636Z,6.48
2022-11-03T07:40:53.458Z,6.49
2022-11-03T07:44:21.209Z,6.35
2022-11-03T07:47:46.433Z,6.51
2022-11-03T07:51:22.288Z,6.54
2022-11-03T07:54:46.786Z,6.57
2022-11-03T07:58:22.547Z,6.56
2022-11-03T08:01:47.418Z,6.62
2022-11-03T08:05:11.396Z,6.61
2022-11-03T08:08:34.393Z,6.61
2022-11-03T08:11:58.895Z,6.62
2022-11-03T08:15:21.742Z,6.76
2022-11-03T08:18:44.813Z,6.77
2022-11-03T08:22:07.360Z,6.74
2022-11-03T08:25:30.328Z,6.78
2022-11-03T08:28:54.609Z,6.82
2022-11-03T08:32:17.680Z,6.75
2022-11-03T08:35:41.356Z,6.84
2022-11-03T08:39:05.456Z,6.83
2022-11-03T08:42:28.294Z,6.94
2022-11-03T08:45:54.331Z,6.99
2022-11-03T08:49:17.286Z,7.03
2022-11-03T08:52:40.345Z,7.08
2022-11-03T08:56:03.409Z,7.10
2022-11-03T08:59:26.581Z,7.18
2022-11-03T09:02:51.070Z,7.25
2022-11-03T09:06:13.623Z,7.27
2022-11-03T09:13:19.453Z,7.27
2022-11-03T09:16:42.451Z,7.25
2022-11-03T09:20:08.196Z,7.24
2022-11-03T09:23:30.645Z,7.24
2022-11-03T09:26:55.965Z,7.24
2022-11-03T09:30:22.296Z,7.27
2022-11-03T09:33:45.366Z,7.34
2022-11-03T09:37:09.961Z,7.37
2022-11-03T09:40:34.834Z,7.36
2022-11-03T09:44:01.002Z,7.44
2022-11-03T09:47:27.127Z,7.47
2022-11-03T09:50:53.987Z,7.53
2022-11-03T09:54:19.394Z,7.55
2022-11-03T09:57:42.163Z,7.60
2022-11-03T10:01:05.037Z,7.61
2022-11-03T10:04:30.473Z,7.54
2022-11-03T10:11:23.924Z,7.69
2022-11-03T10:14:48.316Z,7.74
2022-11-03T10:19:00.947Z,7.80
2022-11-03T10:22:24.418Z,7.85
2022-11-03T10:25:47.893Z,7.97
2022-11-03T10:29:21.603Z,8.03
2022-11-03T10:32:47.526Z,8.11
2022-11-03T10:36:25.851Z,8.10
2022-11-03T10:39:49.020Z,8.11
2022-11-03T10:43:13.822Z,8.14
2022-11-03T10:46:50.585Z,8.06
2022-11-03T10:50:26.467Z,8.12
2022-11-03T10:53:51.263Z,8.10
2022-11-03T10:57:14.946Z,8.08
2022-11-03T11:00:37.723Z,7.98
2022-11-03T11:04:02.530Z,8.03
2022-11-03T11:07:28.223Z,8.06
2022-11-03T11:10:51.192Z,8.07
2022-11-03T11:14:24.802Z,8.08
2022-11-03T11:17:50.522Z,8.10
2022-11-03T11:21:48.195Z,8.08
2022-11-03T11:25:12.895Z,8.05
2022-11-03T11:28:35.647Z,8.04
2022-11-03T11:31:58.714Z,7.99
2022-11-03T11:36:00.687Z,8.02
2022-11-03T11:39:47.096Z,8.02
2022-11-03T11:43:30.644Z,8.06
2022-11-03T11:46:53.497Z,8.09
2022-11-03T11:50:24.547Z,8.13
2022-11-03T11:53:58.765Z,8.09
2022-11-03T11:57:37.092Z,8.09
2022-11-03T12:01:03.836Z,8.16
2022-11-03T12:04:31.960Z,8.17
2022-11-03T12:07:55.081Z,8.17
2022-11-03T12:11:37.907Z,8.16
2022-11-03T12:15:00.973Z,8.18
2022-11-03T12:18:42.556Z,8.16
2022-11-03T12:22:12.596Z,8.15
2022-11-03T12:25:40.571Z,8.15
2022-11-03T12:29:03.223Z,8.14
2022-11-03T12:32:33.615Z,8.19
2022-11-03T12:35:59.899Z,8.20
2022-11-03T12:39:23.366Z,8.20
2022-11-03T12:42:46.544Z,8.21
2022-11-03T12:46:09.597Z,8.19
2022-11-03T12:49:32.252Z,8.25
2022-11-03T12:52:56.845Z,8.26
2022-11-03T12:56:21.033Z,8.16
2022-11-03T12:59:43.795Z,8.29
2022-11-03T13:03:07.419Z,8.24
2022-11-03T13:06:30.736Z,8.23
2022-11-03T13:09:55.333Z,8.21
2022-11-03T13:13:18.290Z,8.19
2022-11-03T13:16:40.947Z,8.17
2022-11-03T13:20:03.890Z,8.15
2022-11-03T13:23:27.682Z,8.11
2022-11-03T13:26:52.078Z,8.16
2022-11-03T13:30:15.347Z,8.09
2022-11-03T13:33:38.099Z,8.05
2022-11-03T13:37:01.265Z,8.10
2022-11-03T13:44:09.306Z,8.06
2022-11-03T13:47:40.475Z,7.99
2022-11-03T13:51:18.125Z,7.89
2022-11-03T16:35:39.001Z,7.75
2022-11-03T16:39:01.213Z,7.62
2022-11-03T16:42:23.428Z,7.66
2022-11-03T16:45:45.720Z,7.69
2022-11-03T16:49:08.082Z,7.65
2022-11-03T16:52:31.559Z,7.56
2022-11-03T16:55:53.736Z,7.57
2022-11-03T16:59:15.686Z,7.57
2022-11-03T17:02:37.756Z,7.58
2022-11-03T17:05:59.755Z,7.37
2022-11-03T17:09:23.284Z,7.58
2022-11-03T17:12:45.123Z,7.55
2022-11-03T17:16:08.618Z,7.43
2022-11-03T17:19:30.710Z,7.53
2022-11-03T17:22:52.682Z,7.61
2022-11-03T17:26:16.405Z,7.62
2022-11-03T17:29:42.261Z,7.51
2022-11-03T17:33:10.359Z,7.61
2022-11-03T17:36:33.647Z,7.63
2022-11-03T17:39:56.888Z,7.61
2022-11-03T17:43:22.781Z,7.62
2022-11-03T17:46:44.736Z,7.60
2022-11-03T17:50:07.087Z,7.56
2022-11-03T17:53:32.110Z,7.53
2022-11-03T17:56:54.007Z,7.45
2022-11-03T18:00:21.970Z,7.52
2022-11-03T18:03:43.851Z,7.53
2022-11-03T18:07:12.982Z,7.54
2022-11-03T18:10:36.840Z,7.53
2022-11-03T18:13:57.346Z,7.53
2022-11-03T18:17:20.575Z,7.47
2022-11-03T18:20:51.898Z,7.49
2022-11-03T18:24:18.300Z,7.46
2022-11-03T18:27:40.333Z,7.43
2022-11-03T18:31:02.082Z,7.45
2022-11-03T18:34:28.245Z,7.46
2022-11-03T18:37:51.880Z,7.45
2022-11-03T18:41:29.232Z,7.44
2022-11-03T18:44:51.290Z,7.42
2022-11-03T18:48:19.476Z,7.40
2022-11-03T18:51:51.199Z,7.33
2022-11-03T18:55:13.930Z,7.40
2022-11-03T18:58:35.891Z,7.39
2022-11-03T19:01:58.134Z,7.37
2022-11-03T19:05:20.544Z,7.29
2022-11-03T19:08:46.650Z,7.32
2022-11-03T19:12:11.645Z,7.13
2022-11-03T19:15:33.448Z,7.27
2022-11-03T19:18:55.305Z,7.26
2022-11-03T19:22:18.650Z,7.20
2022-11-03T19:25:44.121Z,7.11
2022-11-03T19:29:10.731Z,7.16
2022-11-03T19:32:36.970Z,7.10
2022-11-03T19:35:59.185Z,7.13
2022-11-03T19:39:26.328Z,7.13
2022-11-03T19:42:49.883Z,7.12
2022-11-03T19:46:18.946Z,7.10
2022-11-03T19:49:40.659Z,7.08
2022-11-03T19:53:04.579Z,7.03
2022-11-03T19:56:26.449Z,6.99
2022-11-03T19:59:50.235Z,7.02
2022-11-03T20:03:12.610Z,6.98
2022-11-03T20:06:34.905Z,7.04
2022-11-03T20:09:56.835Z,7.00
2022-11-03T20:13:22.189Z,7.02
2022-11-03T20:16:45.531Z,7.02
2022-11-03T20:20:08.446Z,7.02
2022-11-03T20:23:34.356Z,7.04
2022-11-03T20:26:56.473Z,7.01
2022-11-03T20:30:21.335Z,7.04
2022-11-03T20:33:44.907Z,7.05
2022-11-03T20:37:16.915Z,6.96
2022-11-03T20:40:38.959Z,7.08
2022-11-03T20:44:01.088Z,7.06
2022-11-03T20:47:23.385Z,6.96
2022-11-03T20:50:46.919Z,7.02
2022-11-03T20:54:16.143Z,7.03
2022-11-03T20:57:38.676Z,6.99
2022-11-03T21:01:01.534Z,7.00
2022-11-03T21:04:23.591Z,6.99
2022-11-03T21:07:47.322Z,6.97
2022-11-03T21:11:27.787Z,7.02
2022-11-03T21:15:03.755Z,7.02
2022-11-03T21:18:43.437Z,6.89
2022-11-03T21:25:59.035Z,6.91
2022-11-03T21:29:38.968Z,6.99
2022-11-03T21:33:03.114Z,6.98
2022-11-03T21:36:25.263Z,6.98
2022-11-03T21:39:47.751Z,6.93
2022-11-03T21:43:29.455Z,6.99
2022-11-03T21:46:51.469Z,6.97
2022-11-03T21:50:13.269Z,6.96
2022-11-03T21:53:34.945Z,6.95
2022-11-03T21:56:57.165Z,6.94
2022-11-03T22:00:20.432Z,6.94
2022-11-03T22:03:42.399Z,6.96
2022-11-03T22:07:04.829Z,6.92
2022-11-03T22:10:26.809Z,6.90
2022-11-03T22:13:48.766Z,6.95
2022-11-03T22:17:10.905Z,6.89
2022-11-03T22:20:50.413Z,6.73
2022-11-03T22:24:30.113Z,6.90
2022-11-03T22:27:52.096Z,6.87
2022-11-03T22:31:31.232Z,6.85
2022-11-03T22:35:11.834Z,6.85
2022-11-03T22:38:56.828Z,6.84
2022-11-03T22:42:36.357Z,6.83
2022-11-03T22:45:58.683Z,6.79
2022-11-03T22:49:20.380Z,6.77
2022-11-03T22:52:43.886Z,6.76
2022-11-03T22:56:05.933Z,6.72
2022-11-03T22:59:27.943Z,6.70
2022-11-03T23:02:49.426Z,6.64
2022-11-03T23:06:13.353Z,6.69
2022-11-03T23:09:36.631Z,6.71
2022-11-03T23:12:58.616Z,6.71
2022-11-03T23:16:22.973Z,6.68
2022-11-03T23:20:02.488Z,6.63
2022-11-03T23:23:44.474Z,6.60
2022-11-03T23:27:08.376Z,6.59
2022-11-03T23:30:30.453Z,6.56
2022-11-03T23:33:52.768Z,6.55
2022-11-03T23:37:14.894Z,6.53
2022-11-03T23:40:36.620Z,6.53
2022-11-03T23:44:00.101Z,6.52
2022-11-03T23:47:39.922Z,6.51
2022-11-03T23:51:02.228Z,6.51
2022-11-03T23:54:24.542Z,6.51
2022-11-03T23:58:04.277Z,6.47
